CheckWX is a tool to help pilots better visualize weather data.  It is not intended as a substitute for an official pre-flight weather briefing.

16:56:55 UTC

RJFK TAF
Kagoshima Airport
Kagoshima, Japan
TAF RJFK 181105Z 1812/1918 09003KT 9999 -RA FEW015 SCT045 BECMG 1909/1912 32005KT

Jun-18@
12:00 UTC

Jun-18 @ 12:00 UTC

Jun-19@
09:00 UTC

Jun-19 @ 09:00 UTC

TAF RJFK 181105Z 1812/1918 09003KT 9999 -RA FEW015 SCT045
Wind
  • 090° at 3 KTS
Conditions
Light Rain
Cloud Levels
  • Few at 1,500' AGL
  • Scattered at 4,500' AGL

Jun-19@
09:00 UTC

Jun-19 @ 09:00 UTC

Jun-19@
18:00 UTC

Jun-19 @ 18:00 UTC

BECMG 1909/1912 32005KT

Becoming

Becoming Conditions expected by Wed, Jun 19, 2019 @ 12:00 UTC

Wind
  • 320° at 5 KTS
Conditions
Light Rain
Cloud Levels
  • Few at 1,500' AGL
  • Scattered at 4,500' AGL